Antelope Valley, Nevada Weather observations

Data are for 10 minute period ending at time listed.
 Day   Time   Solar   Ave.   Ave.  Ave.  Vector  Max.   Baro.   Total    
  of    of     Rad.   Air    Rel.  Wind   Wind   Wind  Press.  Precip.   
Year   Day            Temp.  Hum.  Speed  Dir.   Gust                    
2016   (PST)  Kw/m2    F      %     mph   deg.    mph    mb.     in.     
-------------------------------------------------------------------------
  40   22:30   0.00   24.6    95    0.6   117     1.3   861.8    0.00 
  40   22:40   0.00   24.6    95    1.4   117     1.6   861.8    0.00 
  40   22:50   0.00   24.5    95    1.9    94     2.6   861.7    0.00 
  40   23:00   0.00   23.5    94    1.1    45     2.3   861.7    0.00 
  40   23:10   0.00   17.0    90    1.6   290     3.1   861.7    0.00 
  40   23:20   0.00   18.2    96    3.1   213     4.4   861.7    0.00 
  40   23:30   0.00   21.0    95    2.9   169     4.4   861.7    0.00 
  40   23:40   0.00   20.9    94    3.7   186     5.2   861.8    0.00 
  40   23:50   0.00   17.2    91    4.9   250     6.7   861.8    0.00 
  41    0:00   0.00   17.3    93    4.2   229     4.7   861.7    0.00 
  41    0:10   0.00   18.1    94    3.9   215     4.7   861.8    0.00 
  41    0:20   0.00   19.6    94    3.1   196     4.4   861.8    0.00 
  41    0:30   0.00   20.7    95    4.6   159     5.1   861.8    0.00 
  41    0:40   0.00   20.7    94    4.4   145     5.5   861.7    0.00 
  41    0:50   0.00   19.5    93    3.8   196     4.5   861.7    0.00 
  41    1:00   0.00   19.6    94    4.4   220     5.5   861.8    0.00 
  41    1:10   0.00   19.6    94    3.8   212     4.5   861.7    0.00 
  41    1:20   0.00   19.6    94    4.0   195     5.3   861.8    0.00 
  41    1:30   0.00   20.2    94    5.0   181     5.4   861.8    0.00 
  41    1:40   0.00   21.5    95    3.8   155     5.4   861.7    0.00 
  41    1:50   0.00   21.9    95    3.8   143     4.1   861.6    0.00 
  41    2:00   0.00   22.7    95    2.1   184     3.3   861.5    0.00 
  41    2:10   0.00   22.1    93    1.8   210     3.6   861.3    0.00 
  41    2:20   0.00   15.4    90    3.6   228     4.1   861.3    0.00 
  41    2:30   0.00   15.6    93    3.5   176     4.8   861.3    0.00 
  41    2:40   0.00   20.5    96    5.3   194     6.0   861.4    0.00 
  41    2:50   0.00   21.6    95    4.9   185     5.6   861.3    0.00 
  41    3:00   0.00   22.6    95    3.7   174     5.0   861.4    0.00 
  41    3:10   0.00   22.7    95    3.2   174     4.2   861.3    0.00 
  41    3:20   0.00   20.8    92    4.8   205     5.6   861.2    0.00 
  41    3:30   0.00   17.5    93    4.5   197     5.4   861.2    0.00 
  41    3:40   0.00   18.2    94    4.6   196     5.3   861.3    0.00 
  41    3:50   0.00   19.8    95    3.3   174     4.4   861.3    0.00 
  41    4:00   0.00   21.1    94    2.4   178     3.0   861.3    0.00 
  41    4:10   0.00   21.7    95    2.6   208     3.8   861.3    0.00 
  41    4:20   0.00   20.4    93    3.9   236     4.3   861.4    0.00 
  41    4:30   0.00   15.0    89    3.0   251     4.2   861.3    0.00 
  41    4:40   0.00   15.6    94    2.6   175     3.7   861.3    0.00 
  41    4:50   0.00   18.4    94    3.7   207     4.8   861.5    0.00 
  41    5:00   0.00   18.0    93    4.0   211     4.6   861.5    0.00 
  41    5:10   0.00   17.0    92    4.4   218     4.9   861.7    0.00 
  41    5:20   0.00   15.4    92    5.5   199     6.5   861.8    0.00 
  41    5:30   0.00   16.6    94    5.1   170     6.2   861.7    0.00 
  41    5:40   0.00   20.8    96    4.5   185     6.1   861.6    0.00 
  41    5:50   0.00   19.8    93    1.5   190     3.1   861.5    0.00 
  41    6:00   0.00   20.3    94    0.8   231     2.9   861.4    0.00 
  41    6:10   0.00   19.4    93    1.2   230     1.9   861.4    0.00 
  41    6:20   0.00   18.8    93    0.7   218     2.2   861.3    0.00 
  41    6:30   0.00   19.6    94    1.4   221     2.6   861.3    0.00 
  41    6:40   0.00   18.3    93    3.0   210     3.9   861.5    0.00 
  41    6:50   0.00   18.4    94    3.7   174     4.6   861.6    0.00 
  41    7:00   0.01   20.3    95    4.5   167     5.2   861.6    0.00 
  41    7:10   0.01   19.9    94    2.8   175     4.2   861.7    0.00 
  41    7:20   0.02   21.8    95    2.2   230     4.2   861.9    0.00 
  41    7:30   0.02   21.1    93    3.6   226     4.5   861.9    0.00 
  41    7:40   0.11   15.6    89    2.4   295     3.4   862.1    0.00 
  41    7:50   0.14   16.0    94    0.2   284     1.7   862.3    0.00 
  41    8:00   0.17   18.3    92    0.3   311     2.4   862.5    0.00 
  41    8:10   0.19   18.2    94    1.7    79     3.5   862.5    0.00 
  41    8:20   0.21   19.2    93    2.3    96     4.3   862.6    0.00 
  41    8:30   0.23   21.2    93    1.8    65     3.7   862.5    0.00 
  41    8:40   0.25   20.8    92    1.9    25     2.7   862.6    0.00 
  41    8:50   0.27   21.3    93    2.7     6     3.4   862.6    0.00 
  41    9:00   0.29   22.5    93    2.0     1     3.1   862.6    0.00 
  41    9:10   0.33   25.3    95    0.0     0     0.0   862.4    0.00 
  41    9:20   0.41   24.0    93    1.2   249     2.6   862.4    0.00 
  41    9:30   0.42   25.0    94    2.0   219     2.6   862.5    0.00 
  41    9:40   0.44   24.8    92    2.9   233     3.2   862.6    0.00 
  41    9:50   0.46   27.9    93    2.3   191     3.1   862.7    0.00 
  41   10:00   0.48   29.3    91    1.9   211     2.3   862.5    0.00 
  41   10:10   0.50   27.8    88    3.1   249     3.7   862.4    0.00 
  41   10:20   0.52   28.3    89    3.6   240     4.2   862.3    0.00 
  41   10:30   0.53   29.9    88    3.4   219     3.9   862.3    0.00 
  41   10:40   0.55   32.8    82    3.1   203     3.9   862.2    0.00 
  41   10:50   0.55   36.1    76    1.5   180     2.9   862.2    0.00 
  41   11:00   0.56   37.7    70    1.2   306     2.8   862.1    0.00 
  41   11:10   0.57   34.2    78    2.7   290     3.0   862.0    0.00 
  41   11:20   0.58   35.0    78    1.7   269     2.5   861.8    0.00 
  41   11:30   0.59   37.2    74    1.0   255     1.7   861.9    0.00 
  41   11:40   0.59   40.5    65    1.2   222     2.0   861.8    0.00 
  41   11:50   0.60   40.3    64    1.3   203     2.3   861.8    0.00 
  41   12:00   0.60   37.1    69    1.8   154     2.4   861.7    0.00 
  41   12:10   0.60   38.7    67    1.6   131     2.2   861.7    0.00 
  41   12:20   0.60   40.8    59    1.0    91     2.0   861.6    0.00 
  41   12:30   0.60   43.4    56    1.0    55     1.5   861.5    0.00 
  41   12:40   0.59   43.9    56    0.8     4     1.2   861.4    0.00 
  41   12:50   0.58   46.4    53    0.3     4     1.1   861.4    0.00 
  41   13:00   0.58   42.4    55    0.1     4     0.7   861.3    0.00 
  41   13:10   0.58   39.1    66    1.7   317     3.1   861.2    0.00 
  41   13:20   0.57   37.7    72    4.2   214     4.8   861.0    0.00 
  41   13:30   0.54   38.9    73    1.7   119     5.0   860.9    0.00 
  41   13:40   0.54   40.1    69    0.9    56     2.0   860.8    0.00 
  41   13:50   0.53   40.8    66    1.7   333     2.6   861.0    0.00 
  41   14:00   0.51   42.2    59    1.4    25     2.2   860.9    0.00 
  41   14:10   0.49   41.7    61    2.5    56     3.1   860.9    0.00 
  41   14:20   0.48   39.2    69    4.3    44     5.4   861.0    0.00 
  41   14:30   0.45   37.8    73    4.3    54     4.7   860.9    0.00 
  41   14:40   0.42   39.1    70    3.8    47     4.7   860.9    0.00 
  41   14:50   0.39   38.8    69    4.8    52     5.3   861.0    0.00 
  41   15:00   0.31   39.6    67    3.8    53     4.2   861.0    0.00 
  41   15:10   0.11   39.1    67    4.1    45     4.4   860.9    0.00 
  41   15:20   0.12   39.1    68    4.2    54     4.7   860.8    0.00 
  41   15:30   0.17   39.7    70    4.1    53     4.7   860.9    0.00 
  41   15:40   0.17   37.7    72    4.3    36     4.9   860.8    0.00 
  41   15:50   0.13   37.3    73    3.3    36     3.9   860.8    0.00 
  41   16:00   0.17   38.0    72    2.8    32     3.4   860.8    0.00 
  41   16:10   0.15   39.2    70    1.3    21     2.4   860.8    0.00 
  41   16:20   0.10   38.4    71    2.4    78     2.9   860.8    0.00 
  41   16:30   0.07   38.7    73    2.0    67     2.4   860.8    0.00 
  41   16:40   0.06   38.6    77    2.8    74     3.2   860.7    0.00 
  41   16:50   0.04   38.6    77    2.8    81     3.4   860.5    0.00 
  41   17:00   0.03   36.7    78    2.4   102     3.2   860.5    0.00 
  41   17:10   0.02   33.2    83    1.0   234     2.3   860.5    0.00 
  41   17:20   0.01   32.0    85    1.2   266     2.3   860.5    0.00 
  41   17:30   0.00   31.8    86    0.9   261     1.8   860.4    0.00 
  41   17:40   0.00   31.3    87    1.7   233     3.7   860.5    0.00 
  41   17:50   0.00   31.5    88    3.4   179     3.9   860.5    0.00 
  41   18:00   0.00   31.6    88    2.5   184     3.4   860.7    0.00 
  41   18:10   0.00   32.2    89    2.1   196     3.0   860.7    0.00 
  41   18:20   0.00   31.2    88    1.2   275     2.8   860.7    0.00 
  41   18:30   0.00   29.5    89    2.3   267     2.9   860.7    0.00 
  41   18:40   0.00   28.9    90    2.8   243     3.7   860.8    0.00 
  41   18:50   0.00   28.6    91    2.2   221     3.1   860.8    0.00 
  41   19:00   0.00   28.8    92    3.2   199     4.1   860.9    0.00 
  41   19:10   0.00   28.9    92    4.1   203     4.7   861.0    0.00 
  41   19:20   0.00   27.9    92    2.9   194     3.7   861.0    0.00 
  41   19:30   0.00   28.8    93    2.0   186     2.6   861.1    0.00 
  41   19:40   0.00   29.2    94    2.0   186     2.6   861.2    0.00 
  41   19:50   0.00   29.2    94    1.9   139     2.7   861.3    0.00 
  41   20:00   0.00   29.9    94    2.0   119     3.7   861.4    0.00 
  41   20:10   0.00   29.5    91    5.9    82     7.7   861.3    0.00 
  41   20:20   0.00   29.0    90    6.1    68     7.7   861.2    0.00 
  41   20:30   0.00   28.9    90    5.0    56     5.5   861.0    0.00 
  41   20:40   0.00   27.6    89    5.1    34     6.3   861.0    0.00 
  41   20:50   0.00   25.9    89    2.3     5     3.1   861.0    0.00 
  41   21:00   0.00   26.2    92    1.6    34     4.2   861.1    0.00 
  41   21:10   0.00   26.9    92    6.0    89     7.2   861.0    0.00 
  41   21:20   0.00   28.9    90    6.1    90     7.0   861.0    0.00 
  41   21:30   0.00   27.8    87    1.7   138     4.2   861.0    0.00 
  41   21:40   0.00   26.1    87    3.2   278     6.0   861.1    0.00 
  41   21:50   0.00   23.0    90    5.2   270     6.3   861.1    0.00 
  41   22:00   0.00   22.6    92    2.0   201     3.7   861.1    0.00 
  41   22:10   0.00   24.4    94    1.3   160     2.6   861.0    0.00 
  41   22:20   0.00   24.8    93    1.7   209     2.6   861.1    0.00 

Return to Antelope Valley graphs page.


Western Regional Climate Center,wrcc@dri.edu